sensor_id;sensor_type;location;lat;lon;timestamp;pressure;altitude;pressure_sealevel;temperature;humidity
56176;BME280;63065;51.082;17.016;2023-05-09T00:00:07;101393.85;;;9.78;38.40
56176;BME280;63065;51.082;17.016;2023-05-09T00:02:31;101395.66;;;10.06;38.06
56176;BME280;63065;51.082;17.016;2023-05-09T00:04:56;101401.66;;;9.74;39.47
56176;BME280;63065;51.082;17.016;2023-05-09T00:07:21;101397.98;;;9.52;39.51
56176;BME280;63065;51.082;17.016;2023-05-09T00:09:47;101393.24;;;9.58;38.08
56176;BME280;63065;51.082;17.016;2023-05-09T00:12:13;101393.29;;;9.71;38.76
56176;BME280;63065;51.082;17.016;2023-05-09T00:14:38;101391.08;;;9.85;38.82
56176;BME280;63065;51.082;17.016;2023-05-09T00:17:04;101387.83;;;9.58;38.10
56176;BME280;63065;51.082;17.016;2023-05-09T00:19:29;101385.52;;;9.72;38.65
56176;BME280;63065;51.082;17.016;2023-05-09T00:21:54;101384.84;;;10.00;38.69
56176;BME280;63065;51.082;17.016;2023-05-09T00:24:20;101383.73;;;9.83;38.52
56176;BME280;63065;51.082;17.016;2023-05-09T00:26:45;101384.16;;;9.34;38.63
56176;BME280;63065;51.082;17.016;2023-05-09T00:29:10;101382.21;;;9.43;39.87
56176;BME280;63065;51.082;17.016;2023-05-09T00:31:36;101381.32;;;9.87;39.28
56176;BME280;63065;51.082;17.016;2023-05-09T00:34:02;101378.41;;;9.81;38.88
56176;BME280;63065;51.082;17.016;2023-05-09T00:36:28;101376.53;;;8.76;40.19
56176;BME280;63065;51.082;17.016;2023-05-09T00:38:53;101370.82;;;9.08;40.03
56176;BME280;63065;51.082;17.016;2023-05-09T00:41:18;101371.66;;;9.22;38.83
56176;BME280;63065;51.082;17.016;2023-05-09T00:43:44;101366.98;;;9.42;39.50
56176;BME280;63065;51.082;17.016;2023-05-09T00:46:09;101366.31;;;9.22;39.44
56176;BME280;63065;51.082;17.016;2023-05-09T00:48:34;101366.41;;;9.30;39.31
56176;BME280;63065;51.082;17.016;2023-05-09T00:50:59;101363.18;;;9.28;39.68
56176;BME280;63065;51.082;17.016;2023-05-09T00:53:25;101362.84;;;9.24;38.81
56176;BME280;63065;51.082;17.016;2023-05-09T00:55:51;101363.54;;;9.44;39.92
56176;BME280;63065;51.082;17.016;2023-05-09T00:58:16;101362.94;;;9.19;39.71
56176;BME280;63065;51.082;17.016;2023-05-09T01:00:42;101364.32;;;9.00;40.15
56176;BME280;63065;51.082;17.016;2023-05-09T01:03:06;101364.49;;;9.16;39.98
56176;BME280;63065;51.082;17.016;2023-05-09T01:05:39;101363.41;;;8.91;39.76
56176;BME280;63065;51.082;17.016;2023-05-09T01:08:02;101361.16;;;9.14;40.16
56176;BME280;63065;51.082;17.016;2023-05-09T01:10:26;101361.04;;;8.97;40.64
56176;BME280;63065;51.082;17.016;2023-05-09T01:12:54;101355.38;;;9.44;39.28
56176;BME280;63065;51.082;17.016;2023-05-09T01:15:19;101350.38;;;9.27;40.15
56176;BME280;63065;51.082;17.016;2023-05-09T01:17:43;101348.13;;;8.93;39.90
56176;BME280;63065;51.082;17.016;2023-05-09T01:20:11;101344.36;;;9.40;39.55
56176;BME280;63065;51.082;17.016;2023-05-09T01:22:31;101344.45;;;9.01;39.90
56176;BME280;63065;51.082;17.016;2023-05-09T01:25:05;101340.18;;;9.13;39.38
56176;BME280;63065;51.082;17.016;2023-05-09T01:27:24;101339.28;;;8.87;40.33
56176;BME280;63065;51.082;17.016;2023-05-09T01:29:47;101334.96;;;8.57;40.37
56176;BME280;63065;51.082;17.016;2023-05-09T01:32:14;101334.29;;;8.72;40.05
56176;BME280;63065;51.082;17.016;2023-05-09T01:34:37;101335.03;;;8.80;40.27
56176;BME280;63065;51.082;17.016;2023-05-09T01:37:03;101335.57;;;8.65;40.69
56176;BME280;63065;51.082;17.016;2023-05-09T01:39:27;101336.52;;;8.78;40.93
56176;BME280;63065;51.082;17.016;2023-05-09T01:41:53;101337.77;;;8.14;40.29
56176;BME280;63065;51.082;17.016;2023-05-09T01:44:17;101339.17;;;8.68;40.91
56176;BME280;63065;51.082;17.016;2023-05-09T01:46:44;101340.55;;;8.23;41.14
56176;BME280;63065;51.082;17.016;2023-05-09T01:49:08;101335.00;;;8.41;40.83
56176;BME280;63065;51.082;17.016;2023-05-09T01:51:35;101332.21;;;8.49;40.52
56176;BME280;63065;51.082;17.016;2023-05-09T01:54:00;101332.69;;;8.26;40.87
56176;BME280;63065;51.082;17.016;2023-05-09T01:56:26;101331.33;;;8.44;40.62
56176;BME280;63065;51.082;17.016;2023-05-09T01:58:51;101334.46;;;8.47;41.15
56176;BME280;63065;51.082;17.016;2023-05-09T02:01:16;101336.30;;;8.22;41.04
56176;BME280;63065;51.082;17.016;2023-05-09T02:03:42;101332.56;;;8.73;41.08
56176;BME280;63065;51.082;17.016;2023-05-09T02:06:07;101330.56;;;8.39;40.55
56176;BME280;63065;51.082;17.016;2023-05-09T02:08:32;101332.01;;;8.86;40.18
56176;BME280;63065;51.082;17.016;2023-05-09T02:10:58;101332.11;;;8.67;40.39
56176;BME280;63065;51.082;17.016;2023-05-09T02:13:23;101329.92;;;8.48;40.27
56176;BME280;63065;51.082;17.016;2023-05-09T02:15:48;101332.87;;;8.78;40.82
56176;BME280;63065;51.082;17.016;2023-05-09T02:18:14;101327.88;;;8.42;40.75
56176;BME280;63065;51.082;17.016;2023-05-09T02:20:39;101327.09;;;8.41;40.20
56176;BME280;63065;51.082;17.016;2023-05-09T02:23:04;101321.31;;;8.74;40.83
56176;BME280;63065;51.082;17.016;2023-05-09T02:25:30;101318.70;;;8.50;40.76
56176;BME280;63065;51.082;17.016;2023-05-09T02:27:56;101322.82;;;8.05;42.10
56176;BME280;63065;51.082;17.016;2023-05-09T02:30:23;101324.06;;;7.93;41.44
56176;BME280;63065;51.082;17.016;2023-05-09T02:32:48;101320.74;;;8.74;41.46
56176;BME280;63065;51.082;17.016;2023-05-09T02:35:12;101322.06;;;8.07;41.05
56176;BME280;63065;51.082;17.016;2023-05-09T02:37:37;101320.24;;;8.64;42.17
56176;BME280;63065;51.082;17.016;2023-05-09T02:40:02;101317.66;;;8.59;41.46
56176;BME280;63065;51.082;17.016;2023-05-09T02:42:27;101313.00;;;8.43;41.39
56176;BME280;63065;51.082;17.016;2023-05-09T02:44:54;101310.15;;;8.41;41.31
56176;BME280;63065;51.082;17.016;2023-05-09T02:47:19;101311.21;;;8.64;41.10
56176;BME280;63065;51.082;17.016;2023-05-09T02:49:45;101309.50;;;8.61;40.73
56176;BME280;63065;51.082;17.016;2023-05-09T02:52:10;101311.15;;;8.54;40.44
56176;BME280;63065;51.082;17.016;2023-05-09T02:54:36;101310.21;;;8.45;41.46
56176;BME280;63065;51.082;17.016;2023-05-09T02:57:02;101307.20;;;8.65;41.63
56176;BME280;63065;51.082;17.016;2023-05-09T02:59:27;101312.27;;;8.14;41.61
56176;BME280;63065;51.082;17.016;2023-05-09T03:01:53;101306.80;;;7.95;41.03
56176;BME280;63065;51.082;17.016;2023-05-09T03:04:19;101301.19;;;8.79;41.21
56176;BME280;63065;51.082;17.016;2023-05-09T03:06:44;101305.31;;;8.39;41.49
56176;BME280;63065;51.082;17.016;2023-05-09T03:09:10;101303.66;;;8.19;40.96
56176;BME280;63065;51.082;17.016;2023-05-09T03:11:35;101299.78;;;8.52;41.28
56176;BME280;63065;51.082;17.016;2023-05-09T03:14:00;101301.23;;;8.42;41.28
56176;BME280;63065;51.082;17.016;2023-05-09T03:16:25;101298.60;;;8.71;40.75
56176;BME280;63065;51.082;17.016;2023-05-09T03:18:51;101296.96;;;8.73;40.72
56176;BME280;63065;51.082;17.016;2023-05-09T03:21:16;101296.11;;;8.45;41.21
56176;BME280;63065;51.082;17.016;2023-05-09T03:23:41;101296.45;;;8.69;41.49
56176;BME280;63065;51.082;17.016;2023-05-09T03:26:07;101292.94;;;8.62;41.38
56176;BME280;63065;51.082;17.016;2023-05-09T03:28:32;101290.86;;;8.84;40.87
56176;BME280;63065;51.082;17.016;2023-05-09T03:30:57;101292.35;;;8.49;41.34
56176;BME280;63065;51.082;17.016;2023-05-09T03:33:23;101291.11;;;8.64;40.51
56176;BME280;63065;51.082;17.016;2023-05-09T03:35:48;101290.96;;;8.73;40.73
56176;BME280;63065;51.082;17.016;2023-05-09T03:38:14;101290.67;;;8.50;41.08
56176;BME280;63065;51.082;17.016;2023-05-09T03:40:39;101289.91;;;8.47;40.87
56176;BME280;63065;51.082;17.016;2023-05-09T03:43:05;101292.79;;;8.13;41.70
56176;BME280;63065;51.082;17.016;2023-05-09T03:45:30;101290.75;;;7.87;41.76
56176;BME280;63065;51.082;17.016;2023-05-09T03:47:55;101290.51;;;8.53;41.40
56176;BME280;63065;51.082;17.016;2023-05-09T03:50:21;101291.66;;;8.62;40.61
56176;BME280;63065;51.082;17.016;2023-05-09T03:52:46;101288.79;;;8.59;41.27
56176;BME280;63065;51.082;17.016;2023-05-09T03:55:12;101287.14;;;8.97;40.44
56176;BME280;63065;51.082;17.016;2023-05-09T03:57:37;101291.15;;;8.59;41.56
56176;BME280;63065;51.082;17.016;2023-05-09T04:00:03;101291.62;;;8.46;41.00
56176;BME280;63065;51.082;17.016;2023-05-09T04:02:28;101294.57;;;8.97;40.09
56176;BME280;63065;51.082;17.016;2023-05-09T04:04:54;101295.40;;;8.95;40.47
56176;BME280;63065;51.082;17.016;2023-05-09T04:07:20;101295.23;;;8.87;40.50
56176;BME280;63065;51.082;17.016;2023-05-09T04:09:45;101290.08;;;8.88;40.86
56176;BME280;63065;51.082;17.016;2023-05-09T04:12:10;101285.75;;;9.47;39.82
56176;BME280;63065;51.082;17.016;2023-05-09T04:14:35;101287.16;;;8.13;41.09
56176;BME280;63065;51.082;17.016;2023-05-09T04:17:01;101287.40;;;8.18;40.80
56176;BME280;63065;51.082;17.016;2023-05-09T04:19:27;101289.88;;;8.89;41.46
56176;BME280;63065;51.082;17.016;2023-05-09T04:21:53;101289.63;;;8.82;40.80
56176;BME280;63065;51.082;17.016;2023-05-09T04:24:18;101293.06;;;9.00;40.94
56176;BME280;63065;51.082;17.016;2023-05-09T04:26:43;101294.77;;;8.30;41.64
56176;BME280;63065;51.082;17.016;2023-05-09T04:29:08;101294.07;;;8.60;40.78
56176;BME280;63065;51.082;17.016;2023-05-09T04:31:33;101293.99;;;9.18;40.06
56176;BME280;63065;51.082;17.016;2023-05-09T04:33:59;101290.89;;;9.03;40.32
56176;BME280;63065;51.082;17.016;2023-05-09T04:36:24;101293.34;;;9.02;40.18
56176;BME280;63065;51.082;17.016;2023-05-09T04:38:49;101295.25;;;8.82;40.48
56176;BME280;63065;51.082;17.016;2023-05-09T04:41:14;101295.12;;;9.15;40.59
56176;BME280;63065;51.082;17.016;2023-05-09T04:43:40;101295.87;;;9.44;39.85
56176;BME280;63065;51.082;17.016;2023-05-09T04:46:05;101293.91;;;9.40;40.32
56176;BME280;63065;51.082;17.016;2023-05-09T04:48:30;101293.15;;;9.44;40.06
56176;BME280;63065;51.082;17.016;2023-05-09T04:50:56;101292.49;;;9.49;40.59
56176;BME280;63065;51.082;17.016;2023-05-09T04:53:21;101292.87;;;9.47;40.92
56176;BME280;63065;51.082;17.016;2023-05-09T04:55:47;101292.47;;;9.78;40.01
56176;BME280;63065;51.082;17.016;2023-05-09T04:58:12;101286.22;;;9.29;39.39
56176;BME280;63065;51.082;17.016;2023-05-09T05:00:38;101282.83;;;10.25;39.11
56176;BME280;63065;51.082;17.016;2023-05-09T05:03:03;101283.14;;;10.45;39.30
56176;BME280;63065;51.082;17.016;2023-05-09T05:05:29;101282.70;;;10.47;39.26
56176;BME280;63065;51.082;17.016;2023-05-09T05:07:54;101283.67;;;10.42;38.70
56176;BME280;63065;51.082;17.016;2023-05-09T05:12:46;101283.13;;;10.33;38.68
56176;BME280;63065;51.082;17.016;2023-05-09T05:15:16;101280.79;;;10.16;38.55
56176;BME280;63065;51.082;17.016;2023-05-09T05:17:37;101276.26;;;10.69;38.33
56176;BME280;63065;51.082;17.016;2023-05-09T05:20:08;101276.21;;;11.03;37.56
56176;BME280;63065;51.082;17.016;2023-05-09T05:22:28;101279.37;;;10.32;37.64
56176;BME280;63065;51.082;17.016;2023-05-09T05:24:55;101278.42;;;11.12;37.46
56176;BME280;63065;51.082;17.016;2023-05-09T05:27:18;101279.43;;;11.67;37.08
56176;BME280;63065;51.082;17.016;2023-05-09T05:29:44;101280.03;;;11.41;37.60
56176;BME280;63065;51.082;17.016;2023-05-09T05:32:09;101275.53;;;11.61;36.78
56176;BME280;63065;51.082;17.016;2023-05-09T05:34:34;101275.98;;;11.24;37.08
56176;BME280;63065;51.082;17.016;2023-05-09T05:36:59;101272.45;;;12.00;36.66
56176;BME280;63065;51.082;17.016;2023-05-09T05:39:24;101274.14;;;11.25;36.95
56176;BME280;63065;51.082;17.016;2023-05-09T05:41:50;101274.93;;;11.92;36.15
56176;BME280;63065;51.082;17.016;2023-05-09T05:44:16;101274.84;;;12.05;36.30
56176;BME280;63065;51.082;17.016;2023-05-09T05:46:42;101274.98;;;11.76;36.53
56176;BME280;63065;51.082;17.016;2023-05-09T05:49:07;101272.09;;;12.11;35.99
56176;BME280;63065;51.082;17.016;2023-05-09T05:51:32;101272.24;;;12.01;37.00
56176;BME280;63065;51.082;17.016;2023-05-09T05:53:57;101271.91;;;11.77;36.09
56176;BME280;63065;51.082;17.016;2023-05-09T05:56:23;101265.68;;;12.37;36.00
56176;BME280;63065;51.082;17.016;2023-05-09T05:58:48;101264.37;;;11.87;36.22
56176;BME280;63065;51.082;17.016;2023-05-09T06:01:14;101259.50;;;12.14;36.67
56176;BME280;63065;51.082;17.016;2023-05-09T06:03:39;101265.14;;;12.33;35.94
56176;BME280;63065;51.082;17.016;2023-05-09T06:06:08;101265.80;;;12.24;35.74
56176;BME280;63065;51.082;17.016;2023-05-09T06:08:36;101264.94;;;12.20;36.02
56176;BME280;63065;51.082;17.016;2023-05-09T06:10:55;101263.12;;;11.97;36.11
56176;BME280;63065;51.082;17.016;2023-05-09T06:13:20;101264.25;;;12.86;35.86
56176;BME280;63065;51.082;17.016;2023-05-09T06:15:45;101262.12;;;12.03;36.01
56176;BME280;63065;51.082;17.016;2023-05-09T06:18:11;101257.08;;;12.17;36.27
56176;BME280;63065;51.082;17.016;2023-05-09T06:20:36;101255.85;;;12.27;35.90
56176;BME280;63065;51.082;17.016;2023-05-09T06:23:02;101255.53;;;12.62;35.37
56176;BME280;63065;51.082;17.016;2023-05-09T06:25:27;101259.44;;;12.77;35.94
56176;BME280;63065;51.082;17.016;2023-05-09T06:27:53;101261.16;;;12.86;34.54
56176;BME280;63065;51.082;17.016;2023-05-09T06:30:18;101259.76;;;12.67;34.78
56176;BME280;63065;51.082;17.016;2023-05-09T06:32:43;101256.18;;;12.69;35.23
56176;BME280;63065;51.082;17.016;2023-05-09T06:35:09;101258.47;;;11.97;35.23
56176;BME280;63065;51.082;17.016;2023-05-09T06:37:35;101253.20;;;12.92;34.69
56176;BME280;63065;51.082;17.016;2023-05-09T06:40:00;101249.21;;;12.75;35.16
56176;BME280;63065;51.082;17.016;2023-05-09T06:42:27;101247.03;;;12.36;35.29
56176;BME280;63065;51.082;17.016;2023-05-09T06:44:51;101241.24;;;12.71;34.30
56176;BME280;63065;51.082;17.016;2023-05-09T06:47:17;101235.55;;;13.01;34.62
56176;BME280;63065;51.082;17.016;2023-05-09T06:49:46;101233.95;;;13.10;34.45
56176;BME280;63065;51.082;17.016;2023-05-09T06:52:11;101233.37;;;13.04;34.49
56176;BME280;63065;51.082;17.016;2023-05-09T06:54:32;101233.32;;;12.79;35.26
56176;BME280;63065;51.082;17.016;2023-05-09T06:56:59;101233.65;;;12.93;34.82
56176;BME280;63065;51.082;17.016;2023-05-09T06:59:23;101228.87;;;13.37;34.16
56176;BME280;63065;51.082;17.016;2023-05-09T07:01:49;101223.95;;;13.16;33.50
56176;BME280;63065;51.082;17.016;2023-05-09T07:04:15;101226.45;;;13.32;34.00
56176;BME280;63065;51.082;17.016;2023-05-09T07:06:41;101227.31;;;13.53;33.87
56176;BME280;63065;51.082;17.016;2023-05-09T07:09:06;101224.09;;;13.47;34.06
56176;BME280;63065;51.082;17.016;2023-05-09T07:11:33;101224.20;;;13.77;33.70
56176;BME280;63065;51.082;17.016;2023-05-09T07:13:57;101222.59;;;13.90;33.68
56176;BME280;63065;51.082;17.016;2023-05-09T07:16:22;101227.46;;;13.62;34.20
56176;BME280;63065;51.082;17.016;2023-05-09T07:18:48;101214.14;;;14.02;33.40
56176;BME280;63065;51.082;17.016;2023-05-09T07:21:14;101216.79;;;14.07;32.94
56176;BME280;63065;51.082;17.016;2023-05-09T07:23:40;101209.49;;;14.43;32.49
56176;BME280;63065;51.082;17.016;2023-05-09T07:26:06;101210.18;;;14.47;33.08
56176;BME280;63065;51.082;17.016;2023-05-09T07:28:31;101203.85;;;14.46;32.54
56176;BME280;63065;51.082;17.016;2023-05-09T07:30:56;101200.73;;;15.06;32.30
56176;BME280;63065;51.082;17.016;2023-05-09T07:33:22;101190.71;;;14.98;31.76
56176;BME280;63065;51.082;17.016;2023-05-09T07:35:48;101185.12;;;14.97;31.81
56176;BME280;63065;51.082;17.016;2023-05-09T07:38:13;101176.95;;;15.35;30.66
56176;BME280;63065;51.082;17.016;2023-05-09T07:40:39;101184.60;;;15.07;31.14
56176;BME280;63065;51.082;17.016;2023-05-09T07:43:06;101176.80;;;14.77;31.55
56176;BME280;63065;51.082;17.016;2023-05-09T07:45:30;101179.10;;;14.88;31.33
56176;BME280;63065;51.082;17.016;2023-05-09T07:47:56;101177.77;;;14.88;31.19
56176;BME280;63065;51.082;17.016;2023-05-09T07:50:22;101166.72;;;14.77;31.70
56176;BME280;63065;51.082;17.016;2023-05-09T07:52:48;101163.29;;;14.72;31.10
56176;BME280;63065;51.082;17.016;2023-05-09T07:55:13;101167.41;;;14.60;30.46
56176;BME280;63065;51.082;17.016;2023-05-09T07:57:39;101158.48;;;15.19;30.77
56176;BME280;63065;51.082;17.016;2023-05-09T08:00:07;101151.42;;;15.11;30.76
56176;BME280;63065;51.082;17.016;2023-05-09T08:02:30;101157.84;;;14.98;30.52
56176;BME280;63065;51.082;17.016;2023-05-09T08:04:55;101158.17;;;15.11;29.92
56176;BME280;63065;51.082;17.016;2023-05-09T08:07:21;101152.90;;;14.88;30.55
56176;BME280;63065;51.082;17.016;2023-05-09T08:09:45;101149.45;;;15.01;30.53
56176;BME280;63065;51.082;17.016;2023-05-09T08:12:11;101146.16;;;15.26;29.89
56176;BME280;63065;51.082;17.016;2023-05-09T08:14:36;101139.93;;;15.44;28.60
56176;BME280;63065;51.082;17.016;2023-05-09T08:17:02;101145.61;;;15.75;29.31
56176;BME280;63065;51.082;17.016;2023-05-09T08:19:28;101137.60;;;16.12;28.76
56176;BME280;63065;51.082;17.016;2023-05-09T08:21:53;101143.46;;;15.75;29.19
56176;BME280;63065;51.082;17.016;2023-05-09T08:24:18;101137.08;;;15.60;29.58
56176;BME280;63065;51.082;17.016;2023-05-09T08:26:44;101126.64;;;16.13;29.56
56176;BME280;63065;51.082;17.016;2023-05-09T08:29:09;101133.32;;;16.78;28.34
56176;BME280;63065;51.082;17.016;2023-05-09T08:31:35;101129.28;;;16.22;28.96
56176;BME280;63065;51.082;17.016;2023-05-09T08:34:00;101128.40;;;16.31;28.37
56176;BME280;63065;51.082;17.016;2023-05-09T08:36:26;101129.38;;;16.50;28.03
56176;BME280;63065;51.082;17.016;2023-05-09T08:38:51;101121.96;;;16.36;28.97
56176;BME280;63065;51.082;17.016;2023-05-09T08:41:16;101116.42;;;16.91;28.31
56176;BME280;63065;51.082;17.016;2023-05-09T08:43:43;101123.97;;;16.70;28.26
56176;BME280;63065;51.082;17.016;2023-05-09T08:46:09;101113.93;;;16.50;28.28
56176;BME280;63065;51.082;17.016;2023-05-09T08:48:34;101111.67;;;17.11;28.32
56176;BME280;63065;51.082;17.016;2023-05-09T08:51:00;101112.65;;;17.53;28.12
56176;BME280;63065;51.082;17.016;2023-05-09T08:53:26;101109.21;;;17.24;27.53
56176;BME280;63065;51.082;17.016;2023-05-09T08:55:51;101108.33;;;17.20;27.59
56176;BME280;63065;51.082;17.016;2023-05-09T08:58:18;101103.08;;;17.01;27.41
56176;BME280;63065;51.082;17.016;2023-05-09T09:00:42;101094.40;;;17.19;28.19
56176;BME280;63065;51.082;17.016;2023-05-09T09:03:08;101086.30;;;16.60;28.30
56176;BME280;63065;51.082;17.016;2023-05-09T09:05:36;101086.50;;;16.99;27.32
56176;BME280;63065;51.082;17.016;2023-05-09T09:07:59;101088.37;;;17.30;28.62
56176;BME280;63065;51.082;17.016;2023-05-09T09:10:26;101091.00;;;16.90;28.48
56176;BME280;63065;51.082;17.016;2023-05-09T09:12:52;101087.24;;;16.91;27.51
56176;BME280;63065;51.082;17.016;2023-05-09T09:15:17;101072.53;;;17.68;28.03
56176;BME280;63065;51.082;17.016;2023-05-09T09:17:50;101082.13;;;17.87;26.98
56176;BME280;63065;51.082;17.016;2023-05-09T09:20:10;101065.80;;;18.09;26.83
56176;BME280;63065;51.082;17.016;2023-05-09T09:22:34;101067.25;;;17.97;26.71
56176;BME280;63065;51.082;17.016;2023-05-09T09:24:58;101060.98;;;17.57;27.40
56176;BME280;63065;51.082;17.016;2023-05-09T09:27:24;101055.01;;;17.86;27.14
56176;BME280;63065;51.082;17.016;2023-05-09T09:29:49;101053.22;;;18.47;26.12
56176;BME280;63065;51.082;17.016;2023-05-09T09:32:15;101047.22;;;18.37;26.29
56176;BME280;63065;51.082;17.016;2023-05-09T09:34:40;101054.70;;;17.77;25.22
56176;BME280;63065;51.082;17.016;2023-05-09T09:37:07;101057.32;;;18.42;25.83
56176;BME280;63065;51.082;17.016;2023-05-09T09:39:31;101058.58;;;18.30;25.96
56176;BME280;63065;51.082;17.016;2023-05-09T09:44:23;101064.60;;;18.36;25.88
56176;BME280;63065;51.082;17.016;2023-05-09T09:46:50;101056.84;;;18.36;26.11
56176;BME280;63065;51.082;17.016;2023-05-09T09:49:16;101054.09;;;18.81;24.29
56176;BME280;63065;51.082;17.016;2023-05-09T09:51:40;101050.60;;;18.67;25.85
56176;BME280;63065;51.082;17.016;2023-05-09T09:54:07;101044.79;;;18.60;26.04
56176;BME280;63065;51.082;17.016;2023-05-09T09:56:39;101037.57;;;18.61;25.68
56176;BME280;63065;51.082;17.016;2023-05-09T10:01:22;101034.57;;;18.79;25.87
56176;BME280;63065;51.082;17.016;2023-05-09T10:03:48;101031.39;;;19.37;25.26
56176;BME280;63065;51.082;17.016;2023-05-09T10:06:14;101024.26;;;19.26;25.61
56176;BME280;63065;51.082;17.016;2023-05-09T10:08:39;101025.43;;;19.58;25.35
56176;BME280;63065;51.082;17.016;2023-05-09T10:11:05;101020.04;;;19.52;25.43
56176;BME280;63065;51.082;17.016;2023-05-09T10:13:30;101015.52;;;19.50;25.40
56176;BME280;63065;51.082;17.016;2023-05-09T10:15:56;101022.49;;;19.08;25.87
56176;BME280;63065;51.082;17.016;2023-05-09T10:18:26;101022.09;;;19.57;23.12
56176;BME280;63065;51.082;17.016;2023-05-09T10:20:46;101017.47;;;19.30;24.13
56176;BME280;63065;51.082;17.016;2023-05-09T10:23:12;101020.55;;;19.77;23.85
56176;BME280;63065;51.082;17.016;2023-05-09T10:25:38;101015.46;;;19.49;24.25
56176;BME280;63065;51.082;17.016;2023-05-09T10:28:04;101011.30;;;19.26;24.31
56176;BME280;63065;51.082;17.016;2023-05-09T10:30:31;101013.61;;;18.90;26.09
56176;BME280;63065;51.082;17.016;2023-05-09T10:32:58;101005.20;;;19.70;24.41
56176;BME280;63065;51.082;17.016;2023-05-09T10:35:25;100994.30;;;19.40;23.59
56176;BME280;63065;51.082;17.016;2023-05-09T10:37:46;100988.74;;;19.68;23.90
56176;BME280;63065;51.082;17.016;2023-05-09T10:40:12;100987.08;;;19.10;24.09
56176;BME280;63065;51.082;17.016;2023-05-09T10:42:37;100980.55;;;19.83;24.32
56176;BME280;63065;51.082;17.016;2023-05-09T10:45:04;100989.16;;;19.49;23.95
56176;BME280;63065;51.082;17.016;2023-05-09T10:47:29;100971.95;;;19.81;24.25
56176;BME280;63065;51.082;17.016;2023-05-09T10:49:55;100965.84;;;19.71;24.00
56176;BME280;63065;51.082;17.016;2023-05-09T10:52:21;100969.64;;;20.07;23.09
56176;BME280;63065;51.082;17.016;2023-05-09T10:54:57;100969.79;;;19.86;23.21
56176;BME280;63065;51.082;17.016;2023-05-09T10:57:17;100966.23;;;20.13;24.15
56176;BME280;63065;51.082;17.016;2023-05-09T10:59:40;100961.70;;;20.39;23.37
56176;BME280;63065;51.082;17.016;2023-05-09T11:02:04;100952.62;;;20.22;23.71
56176;BME280;63065;51.082;17.016;2023-05-09T11:04:33;100953.76;;;19.85;23.71
56176;BME280;63065;51.082;17.016;2023-05-09T11:06:54;100953.97;;;20.20;22.97
56176;BME280;63065;51.082;17.016;2023-05-09T11:09:26;100944.80;;;20.95;22.74
56176;BME280;63065;51.082;17.016;2023-05-09T11:11:51;100935.35;;;20.65;23.36
56176;BME280;63065;51.082;17.016;2023-05-09T11:19:02;100935.43;;;21.40;23.11
56176;BME280;63065;51.082;17.016;2023-05-09T11:21:29;100929.31;;;20.68;22.35
56176;BME280;63065;51.082;17.016;2023-05-09T11:23:53;100925.29;;;20.73;22.67
56176;BME280;63065;51.082;17.016;2023-05-09T11:26:21;100924.83;;;20.52;22.85
56176;BME280;63065;51.082;17.016;2023-05-09T11:28:52;100918.71;;;21.12;22.46
56176;BME280;63065;51.082;17.016;2023-05-09T11:31:12;100918.01;;;20.70;22.62
56176;BME280;63065;51.082;17.016;2023-05-09T11:33:37;100915.64;;;20.72;22.39
56176;BME280;63065;51.082;17.016;2023-05-09T11:40:54;100897.21;;;20.68;22.84
56176;BME280;63065;51.082;17.016;2023-05-09T11:43:19;100885.22;;;20.71;22.40
56176;BME280;63065;51.082;17.016;2023-05-09T11:45:45;100889.18;;;20.89;21.97
56176;BME280;63065;51.082;17.016;2023-05-09T11:48:10;100881.15;;;20.51;22.13
56176;BME280;63065;51.082;17.016;2023-05-09T11:50:36;100878.30;;;20.98;22.67
56176;BME280;63065;51.082;17.016;2023-05-09T11:53:02;100879.68;;;20.48;22.91
56176;BME280;63065;51.082;17.016;2023-05-09T11:55:27;100877.79;;;20.70;22.36
56176;BME280;63065;51.082;17.016;2023-05-09T11:57:53;100877.35;;;20.96;21.86
56176;BME280;63065;51.082;17.016;2023-05-09T12:00:21;100862.03;;;21.09;21.88
56176;BME280;63065;51.082;17.016;2023-05-09T12:02:45;100860.04;;;20.48;21.70
56176;BME280;63065;51.082;17.016;2023-05-09T12:05:12;100860.12;;;20.71;21.98
56176;BME280;63065;51.082;17.016;2023-05-09T12:07:36;100857.85;;;21.40;21.58
56176;BME280;63065;51.082;17.016;2023-05-09T12:10:02;100852.06;;;21.56;21.67
56176;BME280;63065;51.082;17.016;2023-05-09T12:12:27;100849.25;;;21.83;21.93
56176;BME280;63065;51.082;17.016;2023-05-09T12:14:53;100848.16;;;21.56;22.32
56176;BME280;63065;51.082;17.016;2023-05-09T12:17:18;100849.01;;;21.54;21.15
56176;BME280;63065;51.082;17.016;2023-05-09T12:19:44;100851.61;;;21.49;21.86
56176;BME280;63065;51.082;17.016;2023-05-09T12:22:10;100841.32;;;21.26;20.98
56176;BME280;63065;51.082;17.016;2023-05-09T12:24:36;100846.01;;;21.01;20.97
56176;BME280;63065;51.082;17.016;2023-05-09T12:27:02;100834.66;;;20.93;21.29
56176;BME280;63065;51.082;17.016;2023-05-09T12:29:27;100823.64;;;21.24;21.27
56176;BME280;63065;51.082;17.016;2023-05-09T12:31:53;100825.42;;;21.70;20.43
56176;BME280;63065;51.082;17.016;2023-05-09T12:34:19;100827.56;;;21.72;20.67
56176;BME280;63065;51.082;17.016;2023-05-09T12:36:46;100823.73;;;21.91;20.51
56176;BME280;63065;51.082;17.016;2023-05-09T12:39:11;100819.95;;;21.47;20.62
56176;BME280;63065;51.082;17.016;2023-05-09T12:41:42;100813.34;;;21.61;21.36
56176;BME280;63065;51.082;17.016;2023-05-09T12:44:02;100820.54;;;21.76;20.69
56176;BME280;63065;51.082;17.016;2023-05-09T12:46:27;100814.71;;;20.59;22.17
56176;BME280;63065;51.082;17.016;2023-05-09T12:48:53;100805.83;;;21.27;21.40